ADDS METAR Data INFO
IDs: Format: Raw Decoded Include TAF

Data at: 2222 UTC 24 Jun 2018

KDSV 242219Z AUTO 33010KT 10SM -RA OVC008 18/16 A2990 RMK AO2 CIG 007V011 P0001 T01780161
KDSV 242208Z AUTO 32012KT 10SM -RA OVC007 18/16 A2990 RMK AO2 P0001 T01780161
KDSV 242154Z AUTO 33011KT 7SM -RA OVC009 18/16 A2990 RMK AO2 RAB01 CIG 007V011 SLP131 P0005 T01780161
KDSV 242054Z AUTO 31007KT 10SM BKN010 OVC020 18/17 A2988 RMK AO2 RAE46 CIG 007V013 SLP124 P0004 60048 T01830167 53018
KDSV 242044Z AUTO 31009KT 10SM -RA OVC008 18/16 A2988 RMK AO2 CIG 005V013 P0004 T01830161
KDSV 242000Z AUTO 31015G19KT 4SM RA BR BKN005 BKN014 OVC040 19/18 A2984 RMK AO2 LTG DSNT SE AND S P0001 T01940178
KDSV 241957Z AUTO 31011G17KT 2 1/2SM RA BR SCT005 BKN014 OVC040 19/18 A2984 RMK AO2 VIS 1 1/2V5 LTG DSNT SE AND S P0001 T01940178
KDSV 241954Z AUTO 31012G17KT 3SM RA BR SCT008 BKN018 OVC040 19/18 A2983 RMK AO2 LTG DSNT S SLP108 P0043 T01940178
KDSV 241951Z AUTO 31013G17KT 3SM +RA BR SCT008 BKN032 OVC060 20/18 A2983 RMK AO2 LTG DSNT S P0042
KDSV 241929Z AUTO 30005KT 1 1/2SM +RA BR SCT021 BKN039 OVC055 21/18 A2982 RMK AO2 LTG DSNT S P0028 T02060183
KDSV 241916Z AUTO 30005KT 1 3/4SM +RA BR OVC020 21/19 A2982 RMK AO2 P0020 T02060189
KDSV 241912Z AUTO 29006KT 3SM -RA BR BKN019 OVC025 21/19 A2982 RMK AO2 P0015 T02060189
KDSV 241901Z AUTO 34004KT 1 3/4SM +RA BKN019 BKN025 OVC033 21/18 A2982 RMK AO2 P0009 T02110183
KDSV 241854Z AUTO 32006KT 4SM RA BKN017 BKN026 OVC031 22/19 A2981 RMK AO2 RAB50 SLP102 P0001 T02170189
KDSV 241816Z AUTO VRB03KT 10SM SCT014 BKN025 OVC110 24/19 A2982 RMK AO2 T02390189
KDSV 241806Z AUTO 03004KT 10SM SCT025 BKN080 OVC110 23/19 A2982 RMK AO2 T02330189
KDSV 241754Z AUTO 00000KT 10SM FEW020 BKN028 OVC085 22/18 A2983 RMK AO2 RAE00B30E41 SLP105 P0000 60047 T02220183 10228 20194 58003
KDSV 241713Z AUTO 00000KT 10SM SCT007 BKN016 OVC075 21/18 A2984 RMK AO2 RAE00 P0000 T02110183
KDSV 241654Z AUTO 00000KT 5SM -RA BR FEW007 BKN044 OVC070 21/19 A2984 RMK AO2 SLP111 P0008 T02060189
KDSV 241640Z AUTO 00000KT 2 1/2SM RA BR FEW008 BKN039 OVC065 21/19 A2985 RMK AO2 P0007 T02060189
KDSV 241631Z AUTO 00000KT 1 3/4SM RA BR FEW008 BKN034 OVC060 20/18 A2985 RMK AO2 P0005 T02000183
KDSV 241618Z AUTO 32004KT 5SM -RA BR FEW009 SCT038 OVC060 20/18 A2985 RMK AO2 P0002 T02000183
KDSV 241609Z AUTO 31005KT 2 1/2SM RA BR FEW007 SCT016 OVC060 20/18 A2984 RMK AO2 P0002 T02000183
KDSV 241554Z AUTO 31008KT 7SM -RA SCT008 BKN015 OVC025 20/18 A2983 RMK AO2 RAE22B48 SLP108 P0015 T02000183
KDSV 241542Z AUTO 31006KT 9SM FEW006 BKN017 OVC048 21/18 A2983 RMK AO2 RAE22 P0015 T02060183
KDSV 241518Z AUTO 00000KT 3SM -RA BR FEW003 BKN034 OVC045 20/19 A2982 RMK AO2 P0015 T02000189
KDSV 241511Z AUTO 05004KT 1SM +RA BR SCT009 BKN034 OVC047 19/18 A2982 RMK AO2 P0015 T01940183
KDSV 241505Z AUTO 32004KT 1SM +RA BR BKN008 BKN023 OVC047 19/18 A2983 RMK AO2 P0010 T01940183
KDSV 241501Z AUTO 34006KT 3/4SM +RA BR SCT008 BKN013 OVC033 19/18 A2983 RMK AO2 P0007 T01940183
KDSV 241454Z AUTO 32005KT 1 1/4SM +RA BR FEW004 BKN008 OVC013 20/18 A2983 RMK AO2 RAB05 SLP108 P0024 60024 T02000183 53004
KDSV 241441Z AUTO 01003KT 2SM -RA BR BKN008 BKN015 OVC026 20/18 A2983 RMK AO2 RAB05 P0015 T02000183
KDSV 241431Z AUTO 00000KT 1SM +RA BR FEW008 BKN015 OVC040 20/18 A2983 RMK AO2 RAB05 P0012 T02000178
KDSV 241425Z AUTO 00000KT 2SM RA BR SCT015 BKN025 OVC040 20/18 A2982 RMK AO2 RAB05 P0008 T02000178
KDSV 241411Z AUTO 29004KT 1 3/4SM RA BKN022 BKN029 OVC041 21/18 A2982 RMK AO2 RAB05 P0003 T02110178
KDSV 241354Z AUTO 32005KT 10SM OVC020 22/17 A2981 RMK AO2 SLP100 T02220172
KDSV 241336Z AUTO 03003KT 10SM BKN018 BKN060 OVC090 23/18 A2981 RMK AO2 T02280178
KDSV 241254Z AUTO 00000KT 10SM BKN049 OVC065 21/18 A2982 RMK AO2 SLP104 T02110178
KDSV 241203Z AUTO 00000KT 10SM FEW023 BKN049 OVC110 20/17 A2982 RMK AO2 T02000172
KDSV 241154Z AUTO 00000KT 10SM BKN024 BKN037 OVC049 20/17 A2982 RMK AO2 SLP103 70006 T02000172 10200 20178 51010
KDSV 241127Z AUTO 00000KT 10SM BKN024 BKN120 20/17 A2982 RMK AO2 T02000172
KDSV 241054Z AUTO 19003KT 10SM SCT021 BKN050 19/17 A2981 RMK AO2 SLP100 T01890167
KDSV 241034Z AUTO 00000KT 10SM BKN022 BKN055 OVC070 19/17 A2981 RMK AO2 T01890167
KDSV 241023Z AUTO 00000KT 10SM SCT020 BKN055 OVC070 18/17 A2981 RMK AO2 T01830167
KDSV 240954Z AUTO 16003KT 10SM BKN020 OVC045 18/17 A2981 RMK AO2 SLP098 T01830167
KDSV 240854Z AUTO 00000KT 10SM BKN018 BKN025 OVC038 18/17 A2979 RMK AO2 SLP092 T01830167 53003
KDSV 240818Z AUTO 00000KT 10SM BKN023 OVC040 18/16 A2978 RMK AO2 T01830161
KDSV 240803Z AUTO 15003KT 10SM SCT021 BKN040 OVC050 18/16 A2979 RMK AO2 T01830161
KDSV 240754Z AUTO 14003KT 10SM BKN023 OVC040 18/16 A2979 RMK AO2 SLP091 T01830161
KDSV 240725Z AUTO 13004KT 10SM BKN023 BKN031 OVC055 18/16 A2978 RMK AO2 T01780161
KDSV 240654Z AUTO 00000KT 10SM SCT026 BKN043 OVC050 18/16 A2978 RMK AO2 SLP089 T01830161
KDSV 240554Z AUTO 00000KT 10SM SCT037 OVC046 18/16 A2978 RMK AO2 SLP089 60000 T01780161 10233 20178 50001
KDSV 240454Z AUTO 00000KT 10SM FEW055 BKN070 18/16 A2979 RMK AO2 SLP091 T01780161 402610178
KDSV 240354Z AUTO 00000KT 10SM FEW041 SCT050 BKN060 18/17 A2978 RMK AO2 SLP091 T01830167
KDSV 240254Z AUTO 16004KT 10SM OVC040 19/17 A2978 RMK AO2 SLP089 60000 T01940172 51014
KDSV 240154Z AUTO 00000KT 10SM FEW034 BKN042 BKN060 20/17 A2977 RMK AO2 SLP085 T02000172
KDSV 240054Z AUTO 00000KT 10SM OVC055 22/18 A2975 RMK AO2 RAE03 SLP079 P0000 T02170178
KDSV 232354Z AUTO 20005KT 9SM -RA FEW060 SCT075 BKN100 23/18 A2974 RMK AO2 RAB00E16B34 SLP074 P0002 60003 T02280183 10261 20217 53004
KDSV 232254Z AUTO 00000KT 10SM BKN036 BKN042 OVC050 22/19 A2972 RMK AO2 RAB15E38 SLP068 P0001 T02220189
KDSV 232154Z AUTO 13005KT 10SM FEW032 BKN060 OVC080 24/17 A2972 RMK AO2 RAB35E45 SLP068 P0000 T02440172
KDSV 232054Z AUTO 17009KT 10SM FEW039 SCT047 BKN070 25/17 A2972 RMK AO2 SLP069 T02500167 56009
KDSV 231954Z AUTO 15006KT 10SM BKN046 BKN055 OVC070 24/16 A2972 RMK AO2 SLP070 T02440161
KDSV 231854Z AUTO 16007KT 10SM FEW030 OVC042 23/17 A2974 RMK AO2 SLP077 T02330167
KDSV 231754Z AUTO 15006KT 10SM OVC031 23/17 A2975 RMK AO2 SLP079 60003 T02280167 10233 20183 56017
KDSV 231654Z AUTO 16009KT 10SM FEW027 BKN032 OVC065 23/17 A2976 RMK AO2 RAE16 SLP083 P0000 T02280167
KDSV 231554Z AUTO 17003KT 8SM -RA OVC070 21/17 A2978 RMK AO2 RAE28B49 SLP091 P0003 T02060167
KDSV 231522Z AUTO 13005KT 10SM -RA SCT026 BKN047 OVC090 20/16 A2979 RMK AO2 P0001 T02000161
KDSV 231504Z AUTO 15006KT 10SM -RA BKN025 OVC080 20/16 A2980 RMK AO2 P0000 T02000156
KDSV 231454Z AUTO 14008KT 10SM -RA SCT025 BKN060 OVC085 20/15 A2980 RMK AO2 RAB50 SLP098 P0000 60000 T02000150 55005
KDSV 231354Z AUTO 16011KT 10SM OVC023 21/15 A2980 RMK AO2 SLP095 T02060150
KDSV 231254Z AUTO 14008KT 10SM OVC023 19/14 A2981 RMK AO2 RAB01E15 SLP100 P0000 T01890144
KDSV 231154Z AUTO 14007KT 10SM OVC024 18/14 A2982 RMK AO2 SLP103 T01830139 10183 20178 56006
KDSV 231130Z AUTO 14011KT 10SM BKN024 OVC095 18/13 A2982 RMK AO2 T01830133
KDSV 231101Z AUTO 12007KT 10SM SCT026 BKN035 BKN049 18/13 A2982 RMK AO2 T01830133
KDSV 231054Z AUTO 11006KT 10SM BKN026 BKN035 BKN049 18/13 A2982 RMK AO2 SLP103 T01830133